Time;durP1;ratioP1;P1;durP2;ratioP2;P2;SDS_P1;SDS_P2;PMS_P1;PMS_P2;Temp;Humidity;BMP_temperature;BMP_pressure;BME280_temperature;BME280_humidity;BME280_pressure;Samples;Min_cycle;Max_cycle;Signal;HPM_P1;HPM_P2
2023/04/13 00:01:01;;;;;;;5.60;5.10;;;;;;;6.31;89.26;98898.03;5037551;28;20233;-81
2023/04/13 00:03:31;;;;;;;5.50;5.00;;;;;;;6.28;88.41;98886.91;5040261;28;20229;-82
2023/04/13 00:05:58;;;;;;;6.37;5.77;;;;;;;6.23;89.98;98863.72;5040585;28;20225;-84
2023/04/13 00:08:29;;;;;;;8.73;6.10;;;;;;;6.26;89.81;98853.25;5039984;28;20273;-83
2023/04/13 00:10:56;;;;;;;7.00;6.30;;;;;;;6.29;89.11;98857.53;5040142;28;20227;-81
2023/04/13 00:13:23;;;;;;;7.20;6.50;;;;;;;6.31;90.13;98840.19;5040489;28;20210;-83
2023/04/13 00:15:50;;;;;;;7.47;6.70;;;;;;;6.31;90.14;98840.19;5039307;28;20247;-82
2023/04/13 00:18:16;;;;;;;7.63;6.93;;;;;;;6.30;89.99;98826.41;5039501;28;20257;-82
2023/04/13 00:20:43;;;;;;;9.53;7.17;;;;;;;6.36;90.52;98815.84;5039870;28;20273;-83
2023/04/13 00:23:10;;;;;;;7.00;6.30;;;;;;;6.34;90.29;98816.78;5039878;28;20212;-82
2023/04/13 00:25:37;;;;;;;7.43;6.83;;;;;;;6.38;90.86;98812.34;5039975;28;20577;-83
2023/04/13 00:28:05;;;;;;;6.80;6.10;;;;;;;6.22;90.05;98824.88;5039103;28;20206;-83
2023/04/13 00:30:31;;;;;;;7.30;6.27;;;;;;;6.06;90.30;98840.84;5035850;28;20222;-81
2023/04/13 00:32:58;;;;;;;8.00;6.63;;;;;;;6.07;90.93;98824.41;5039571;28;20206;-82
2023/04/13 00:35:25;;;;;;;8.93;6.93;;;;;;;6.14;91.28;98809.56;5039850;28;20210;-82
2023/04/13 00:37:52;;;;;;;7.70;6.33;;;;;;;6.18;91.72;98805.13;5039404;28;20207;-81
2023/04/13 00:40:18;;;;;;;6.57;5.90;;;;;;;6.20;90.94;98806.78;5039357;28;20223;-83
2023/04/13 00:42:47;;;;;;;6.47;5.87;;;;;;;6.14;90.07;98819.91;5038839;28;20263;-83
2023/04/13 00:45:14;;;;;;;8.23;6.27;;;;;;;6.03;89.72;98835.75;5039071;28;20207;-82
2023/04/13 00:47:45;;;;;;;6.40;5.63;;;;;;;6.07;90.17;98839.13;5039903;28;20592;-83
2023/04/13 00:50:12;;;;;;;6.97;6.20;;;;;;;6.08;90.20;98830.44;5039551;28;20684;-81
2023/04/13 00:52:39;;;;;;;6.60;6.00;;;;;;;6.04;90.64;98836.59;5039415;28;20234;-81
2023/04/13 00:55:07;;;;;;;9.13;6.63;;;;;;;6.08;90.40;98815.75;5039081;28;20579;-82
2023/04/13 00:57:35;;;;;;;6.67;5.97;;;;;;;6.11;90.06;98827.78;5039035;28;20213;-82
2023/04/13 01:00:08;;;;;;;6.93;6.17;;;;;;;6.09;89.77;98825.22;5036437;28;20223;-83
2023/04/13 01:02:35;;;;;;;6.70;6.10;;;;;;;6.11;90.58;98828.63;5039123;28;20206;-82
2023/04/13 01:05:04;;;;;;;6.93;6.27;;;;;;;6.14;90.43;98825.09;5039925;28;20211;-83
2023/04/13 01:07:40;;;;;;;7.37;6.50;;;;;;;6.16;89.94;98828.50;5038713;28;20234;-81
2023/04/13 01:10:11;;;;;;;7.33;6.63;;;;;;;6.14;90.20;98825.97;5039101;28;20234;-83
2023/04/13 01:12:47;;;;;;;6.23;5.63;;;;;;;6.16;91.16;98818.13;5039505;28;20212;-83
2023/04/13 01:15:18;;;;;;;7.53;5.57;;;;;;;6.19;90.43;98802.53;5039126;28;20212;-82
2023/04/13 01:17:52;;;;;;;6.30;5.80;;;;;;;6.18;91.40;98795.63;5039283;28;20230;-83
2023/04/13 01:20:19;;;;;;;8.43;5.77;;;;;;;6.17;91.04;98793.94;5038770;28;20601;-83
2023/04/13 01:22:50;;;;;;;6.70;6.00;;;;;;;6.24;90.99;98799.78;5039056;28;20211;-83
2023/04/13 01:25:30;;;;;;;6.60;5.77;;;;;;;6.27;91.00;98797.97;5038773;28;20217;-81
2023/04/13 01:28:01;;;;;;;6.40;5.80;;;;;;;6.28;90.77;98799.69;5039124;28;20418;-82
2023/04/13 01:30:30;;;;;;;7.47;6.13;;;;;;;6.19;91.31;98801.69;5035044;28;20293;-83
2023/04/13 01:32:58;;;;;;;6.73;6.03;;;;;;;6.17;91.20;98783.56;5038745;28;20207;-82
2023/04/13 01:35:25;;;;;;;6.93;6.30;;;;;;;6.19;91.96;98781.78;5040764;28;20206;-82
2023/04/13 01:37:52;;;;;;;7.23;6.53;;;;;;;6.24;92.19;98772.13;5038863;28;20315;-83
2023/04/13 01:40:19;;;;;;;7.43;6.83;;;;;;;6.26;91.78;98770.34;5038552;28;20231;-82
2023/04/13 01:42:46;;;;;;;7.30;6.70;;;;;;;6.23;91.72;98765.25;5039323;28;20199;-83
2023/04/13 01:45:17;;;;;;;7.17;6.57;;;;;;;6.21;92.25;98772.22;5039790;28;20242;-83
2023/04/13 01:47:50;;;;;;;7.10;6.50;;;;;;;6.21;92.81;98753.25;5039549;28;20243;-82
2023/04/13 01:50:25;;;;;;;7.53;6.63;;;;;;;6.22;93.25;98750.59;5039621;28;20267;-83
2023/04/13 01:52:56;;;;;;;6.93;6.33;;;;;;;6.16;92.44;98745.59;5037801;28;20650;-81
2023/04/13 01:55:23;;;;;;;7.17;6.57;;;;;;;6.20;92.70;98726.47;5037599;28;20283;-82
2023/04/13 01:57:53;;;;;;;6.57;6.07;;;;;;;6.14;92.88;98732.72;5036541;28;20213;-80
2023/04/13 02:00:21;;;;;;;6.70;6.20;;;;;;;6.18;92.71;98738.63;5034016;28;20367;-81
2023/04/13 02:02:47;;;;;;;6.90;6.30;;;;;;;6.18;92.57;98743.81;5021118;28;20234;-81
2023/04/13 02:05:14;;;;;;;6.70;6.03;;;;;;;6.12;92.36;98742.22;5016906;28;20584;-82
2023/04/13 02:07:43;;;;;;;6.77;6.27;;;;;;;6.12;92.68;98744.81;5016424;28;20239;-80
2023/04/13 02:10:10;;;;;;;7.00;6.30;;;;;;;6.16;92.22;98743.00;5016720;28;20602;-82
2023/04/13 02:12:37;;;;;;;8.60;6.03;;;;;;;6.12;92.52;98746.56;5016655;28;20258;-81
2023/04/13 02:15:04;;;;;;;6.33;5.83;;;;;;;6.11;93.28;98740.56;5017119;28;20212;-80
2023/04/13 02:17:31;;;;;;;6.37;5.77;;;;;;;6.02;93.00;98743.38;5017033;28;20207;-81
2023/04/13 02:19:58;;;;;;;6.53;5.80;;;;;;;6.00;93.55;98737.41;5016485;28;20210;-81
2023/04/13 02:22:24;;;;;;;6.33;5.73;;;;;;;6.07;93.91;98731.19;5017028;28;20208;-80
2023/04/13 02:24:51;;;;;;;6.17;5.57;;;;;;;6.02;94.00;98720.06;5016830;28;20248;-82
2023/04/13 02:27:17;;;;;;;5.67;5.17;;;;;;;6.05;94.29;98714.00;5016418;28;20212;-81
2023/04/13 02:29:44;;;;;;;6.33;5.53;;;;;;;6.09;93.20;98708.66;5022834;28;20256;-79
2023/04/13 02:32:10;;;;;;;5.60;5.20;;;;;;;6.09;93.74;98710.41;5036216;28;20263;-81
2023/04/13 02:34:38;;;;;;;6.20;5.70;;;;;;;6.08;93.25;98703.53;5036544;28;20206;-80
2023/04/13 02:37:08;;;;;;;7.33;6.23;;;;;;;5.99;94.20;98702.06;5036074;28;20207;-83
2023/04/13 02:39:34;;;;;;;5.37;4.87;;;;;;;6.07;93.95;98696.66;5036085;28;20213;-82
2023/04/13 02:42:01;;;;;;;5.43;4.93;;;;;;;6.10;93.56;98697.41;5035822;28;20233;-82
2023/04/13 02:44:29;;;;;;;5.80;5.23;;;;;;;6.16;92.48;98709.31;5036485;28;20697;-83
2023/04/13 02:46:55;;;;;;;4.17;3.77;;;;;;;6.09;92.66;98713.00;5036159;28;20204;-82
2023/04/13 02:49:21;;;;;;;4.87;4.40;;;;;;;6.07;92.80;98720.81;5036400;28;20207;-81
2023/04/13 02:51:49;;;;;;;4.17;3.87;;;;;;;6.11;91.61;98734.53;5036013;28;20694;-81
2023/04/13 02:54:15;;;;;;;4.33;3.97;;;;;;;6.11;92.44;98745.72;5036744;28;20679;-81
2023/04/13 02:56:43;;;;;;;4.17;3.80;;;;;;;6.08;91.43;98752.72;5036445;28;20679;-81
2023/04/13 02:59:10;;;;;;;4.47;4.07;;;;;;;6.00;91.48;98758.13;5033494;28;20215;-81
2023/04/13 03:01:36;;;;;;;4.83;4.43;;;;;;;5.97;91.50;98759.06;5036273;28;20214;-81
2023/04/13 03:04:03;;;;;;;5.97;5.17;;;;;;;5.96;90.91;98761.69;5036549;28;20210;-82
2023/04/13 03:06:30;;;;;;;5.23;4.73;;;;;;;5.80;91.06;98768.16;5036603;28;20839;-82
2023/04/13 03:08:58;;;;;;;4.80;4.33;;;;;;;5.82;92.05;98768.97;5036280;28;20206;-81
2023/04/13 03:11:25;;;;;;;5.50;4.70;;;;;;;5.76;92.10;98768.22;5036345;28;20229;-82
2023/04/13 03:13:52;;;;;;;4.10;3.70;;;;;;;5.56;92.46;98767.91;5036091;28;20209;-81
2023/04/13 03:16:19;;;;;;;4.70;4.23;;;;;;;5.61;92.90;98760.00;5036410;28;20260;-82
2023/04/13 03:18:46;;;;;;;5.03;4.53;;;;;;;5.64;92.66;98753.00;5036526;28;20203;-81
2023/04/13 03:21:12;;;;;;;4.43;4.03;;;;;;;5.72;92.26;98758.84;5036173;28;20220;-82
2023/04/13 03:23:39;;;;;;;4.10;3.77;;;;;;;5.67;91.44;98755.53;5036227;28;20678;-83
2023/04/13 03:26:07;;;;;;;5.07;3.83;;;;;;;5.66;91.81;98766.75;5035992;28;20237;-83
2023/04/13 03:28:33;;;;;;;4.97;3.93;;;;;;;5.68;91.11;98774.50;5035950;28;20740;-83
2023/04/13 03:30:59;;;;;;;2.50;2.30;;;;;;;5.74;90.66;98767.41;5030063;28;20235;-82
2023/04/13 03:33:26;;;;;;;3.50;2.23;;;;;;;5.73;91.00;98786.44;5035961;28;20216;-81
2023/04/13 03:35:52;;;;;;;3.50;2.03;;;;;;;5.85;89.74;98793.03;5036027;28;20206;-79
2023/04/13 03:38:19;;;;;;;2.20;2.00;;;;;;;5.80;90.17;98805.25;5035955;28;20271;-81
2023/04/13 03:40:45;;;;;;;2.60;2.40;;;;;;;5.80;90.55;98804.41;5036430;28;20248;-81
2023/04/13 03:43:13;;;;;;;1.90;1.70;;;;;;;5.81;90.34;98798.31;5036583;28;20253;-82
2023/04/13 03:45:40;;;;;;;2.03;1.83;;;;;;;5.87;90.16;98816.31;5035890;28;20238;-81
2023/04/13 03:48:06;;;;;;;2.37;2.00;;;;;;;5.88;89.59;98816.25;5035836;28;20208;-80
2023/04/13 03:50:33;;;;;;;2.27;1.60;;;;;;;5.86;88.69;98830.97;5036262;28;20236;-82
2023/04/13 03:52:59;;;;;;;2.13;1.93;;;;;;;5.85;89.12;98833.63;5038782;28;20207;-82
2023/04/13 03:55:26;;;;;;;1.57;1.43;;;;;;;5.79;89.34;98842.38;5040483;28;20228;-82
2023/04/13 03:57:53;;;;;;;1.83;1.30;;;;;;;5.78;89.31;98836.34;5040134;28;20261;-81
2023/04/13 04:00:20;;;;;;;2.03;1.77;;;;;;;5.75;89.65;98841.63;5036517;28;20256;-82
2023/04/13 04:02:47;;;;;;;4.00;1.63;;;;;;;5.75;89.12;98838.19;5039513;28;20755;-83
2023/04/13 04:05:15;;;;;;;1.50;1.30;;;;;;;5.73;88.86;98840.81;5039582;28;20689;-83
2023/04/13 04:07:41;;;;;;;1.40;1.30;;;;;;;5.74;88.87;98844.22;5039210;28;20249;-81
2023/04/13 04:10:08;;;;;;;1.83;1.63;;;;;;;5.73;88.77;98852.91;5038841;28;20649;-83
2023/04/13 04:12:34;;;;;;;1.33;1.23;;;;;;;5.76;89.17;98847.63;5040258;28;20253;-82
2023/04/13 04:15:01;;;;;;;1.80;1.37;;;;;;;5.75;89.78;98836.44;5039905;28;20253;-82
2023/04/13 04:17:29;;;;;;;1.67;1.23;;;;;;;5.80;88.83;98838.91;5039171;28;20202;-82
2023/04/13 04:19:55;;;;;;;2.63;1.13;;;;;;;5.83;88.74;98853.50;5039714;28;20217;-82
2023/04/13 04:22:28;;;;;;;2.10;1.10;;;;;;;5.74;88.04;98862.34;5040140;28;20256;-82
2023/04/13 04:24:57;;;;;;;1.27;0.90;;;;;;;5.74;87.92;98872.72;5040804;28;20217;-82
2023/04/13 04:27:25;;;;;;;1.70;1.07;;;;;;;5.84;89.13;98871.59;5040466;28;20206;-82
2023/04/13 04:29:51;;;;;;;1.07;0.90;;;;;;;5.90;88.94;98878.34;5036394;28;20209;-82
2023/04/13 04:32:18;;;;;;;1.73;0.87;;;;;;;5.97;88.77;98878.19;5040003;28;20249;-84
2023/04/13 04:34:51;;;;;;;1.40;1.00;;;;;;;6.03;88.49;98882.38;5040200;28;20210;-84
2023/04/13 04:37:20;;;;;;;3.80;0.90;;;;;;;6.11;88.19;98882.19;5039642;28;20559;-83
2023/04/13 04:39:46;;;;;;;1.03;0.90;;;;;;;6.13;88.33;98883.00;5039187;28;20740;-83
2023/04/13 04:42:13;;;;;;;1.27;1.10;;;;;;;6.18;88.37;98888.03;5040031;28;20208;-81
2023/04/13 04:44:40;;;;;;;0.93;0.83;;;;;;;6.14;87.98;98900.22;5022415;28;20227;-83
2023/04/13 04:47:06;;;;;;;2.40;0.90;;;;;;;6.16;87.63;98917.44;5016461;28;20207;-83
2023/04/13 04:49:32;;;;;;;0.93;0.70;;;;;;;6.24;86.72;98925.00;5009645;28;20263;-83
2023/04/13 04:52:00;;;;;;;1.30;0.80;;;;;;;6.27;86.14;98948.25;5011543;28;20228;-83
2023/04/13 04:54:27;;;;;;;1.23;0.77;;;;;;;6.38;85.89;98955.75;5010903;28;20199;-83
2023/04/13 04:56:53;;;;;;;1.33;1.20;;;;;;;6.42;85.73;98962.56;5010775;28;20199;-84
2023/04/13 04:59:19;;;;;;;1.80;0.80;;;;;;;6.44;85.78;98986.72;5014206;28;20206;-84
2023/04/13 05:01:48;;;;;;;1.63;0.80;;;;;;;6.46;83.92;99012.56;5015231;28;20775;-82
2023/04/13 05:04:14;;;;;;;0.67;0.60;;;;;;;6.39;83.78;99029.19;5011073;28;20222;-84
2023/04/13 05:06:41;;;;;;;2.37;0.97;;;;;;;6.47;83.60;99047.97;5011067;28;20233;-85
2023/04/13 05:09:09;;;;;;;1.70;0.80;;;;;;;6.54;84.62;99033.94;5010057;28;20662;-85
2023/04/13 05:11:35;;;;;;;1.37;0.80;;;;;;;6.56;83.79;99048.59;5010372;28;20685;-85
2023/04/13 05:14:01;;;;;;;1.50;0.80;;;;;;;6.62;83.22;99052.78;5011195;28;20208;-85
2023/04/13 05:16:29;;;;;;;0.97;0.73;;;;;;;6.70;82.79;99037.88;5010180;28;20261;-84
2023/04/13 05:18:56;;;;;;;1.60;0.80;;;;;;;6.74;84.59;99036.91;5012119;28;20204;-85
2023/04/13 05:21:22;;;;;;;1.20;0.90;;;;;;;6.73;83.12;99035.19;5009731;28;20709;-84
2023/04/13 05:23:49;;;;;;;1.37;0.73;;;;;;;6.77;83.93;99061.91;5010851;28;20204;-84
2023/04/13 05:26:16;;;;;;;2.37;0.80;;;;;;;6.80;83.96;99048.88;5013533;28;20297;-84
2023/04/13 05:28:43;;;;;;;1.63;0.77;;;;;;;6.83;83.09;99058.31;5010209;28;20209;-84
2023/04/13 05:31:09;;;;;;;1.50;0.80;;;;;;;6.85;82.98;99057.38;5044026;22;20308;-80
2023/04/13 05:33:36;;;;;;;0.80;0.70;;;;;;;6.87;82.61;99068.56;5021040;28;20203;-79
2023/04/13 05:36:04;;;;;;;1.17;0.90;;;;;;;6.92;83.70;99074.47;5023620;28;20208;-80
2023/04/13 05:38:30;;;;;;;0.70;0.70;;;;;;;6.88;83.13;99072.84;5025141;28;20274;-79
2023/04/13 05:40:57;;;;;;;1.40;0.73;;;;;;;6.90;81.73;99097.00;5024429;28;20276;-79
2023/04/13 05:43:25;;;;;;;1.30;1.00;;;;;;;6.89;79.66;99126.41;5024033;28;20232;-79
2023/04/13 05:45:52;;;;;;;0.93;0.60;;;;;;;6.91;80.97;99134.19;5026711;28;20413;-79
2023/04/13 05:48:18;;;;;;;1.13;0.80;;;;;;;6.93;82.29;99124.59;5023867;28;20199;-79
2023/04/13 05:50:45;;;;;;;2.00;0.87;;;;;;;6.99;80.89;99134.81;5025161;28;20589;-79
2023/04/13 05:53:11;;;;;;;1.90;0.93;;;;;;;6.86;80.12;99152.47;5025211;28;20641;-78
2023/04/13 05:55:37;;;;;;;1.37;0.83;;;;;;;6.89;81.44;99162.75;5023486;28;20206;-80
2023/04/13 05:58:04;;;;;;;1.30;0.80;;;;;;;7.02;81.85;99152.09;5025854;28;20344;-79
2023/04/13 06:00:32;;;;;;;0.70;0.70;;;;;;;7.09;81.22;99141.47;5026544;28;20203;-78
2023/04/13 06:03:00;;;;;;;1.53;0.93;;;;;;;7.15;80.15;99158.63;5022071;28;20202;-79
2023/04/13 06:05:27;;;;;;;1.53;0.73;;;;;;;7.25;81.69;99152.31;5024686;28;20303;-78
2023/04/13 06:07:54;;;;;;;1.87;0.80;;;;;;;7.16;79.62;99161.19;5024600;28;20195;-79
2023/04/13 06:10:20;;;;;;;2.47;0.73;;;;;;;7.28;80.42;99178.19;5022389;28;20246;-79
2023/04/13 06:12:47;;;;;;;2.50;0.90;;;;;;;7.35;79.62;99187.53;5025214;28;20222;-78
2023/04/13 06:15:14;;;;;;;1.60;0.90;;;;;;;7.39;79.79;99195.25;5024880;28;20200;-79
2023/04/13 06:17:42;;;;;;;1.30;0.80;;;;;;;7.46;78.74;99204.59;5025241;28;20224;-81
2023/04/13 06:20:10;;;;;;;2.00;0.87;;;;;;;7.47;78.97;99221.84;5025129;28;20262;-80
2023/04/13 06:22:36;;;;;;;1.43;0.70;;;;;;;7.53;80.14;99226.88;5024302;28;20274;-80
2023/04/13 06:25:03;;;;;;;1.10;0.87;;;;;;;7.55;78.82;99236.34;5026666;28;20208;-78
2023/04/13 06:27:32;;;;;;;1.53;0.60;;;;;;;7.64;78.46;99231.81;5020118;28;20201;-80
2023/04/13 06:29:59;;;;;;;1.30;0.63;;;;;;;7.68;78.66;99233.44;5013567;28;20294;-79
2023/04/13 06:32:25;;;;;;;2.73;0.90;;;;;;;7.68;77.50;99252.44;5013902;28;20230;-79
2023/04/13 06:34:53;;;;;;;2.27;0.77;;;;;;;7.59;76.93;99267.41;5014305;28;20236;-80
2023/04/13 06:37:19;;;;;;;1.00;0.53;;;;;;;7.73;78.30;99280.91;5025496;28;20205;-78
2023/04/13 06:39:46;;;;;;;1.17;0.60;;;;;;;7.70;78.51;99279.25;5023947;28;20256;-80
2023/04/13 06:42:12;;;;;;;1.00;0.60;;;;;;;7.65;77.24;99269.84;5022593;28;20222;-80
2023/04/13 06:44:38;;;;;;;1.40;0.50;;;;;;;7.73;78.35;99286.97;5027430;28;20231;-80
2023/04/13 06:47:05;;;;;;;1.43;0.83;;;;;;;7.80;77.80;99290.25;5035163;28;20263;-81
2023/04/13 06:49:32;;;;;;;1.90;0.70;;;;;;;7.86;79.76;99265.84;5035656;28;20209;-80
2023/04/13 06:52:00;;;;;;;1.67;0.83;;;;;;;7.90;80.03;99237.13;5035463;28;20233;-80
2023/04/13 06:54:26;;;;;;;1.10;0.50;;;;;;;7.91;77.78;99253.59;5034684;28;20241;-80
2023/04/13 06:56:52;;;;;;;1.90;0.60;;;;;;;7.85;77.93;99252.03;5025329;28;20216;-79
2023/04/13 06:59:19;;;;;;;1.10;1.00;;;;;;;7.92;78.21;99263.94;5015543;28;20224;-78
2023/04/13 07:01:46;;;;;;;3.57;0.70;;;;;;;7.97;76.51;99287.22;5032788;28;20229;-78
2023/04/13 07:04:12;;;;;;;1.00;0.60;;;;;;;8.06;76.19;99318.13;5024837;28;20196;-80
2023/04/13 07:06:38;;;;;;;0.90;0.70;;;;;;;8.10;75.59;99321.50;5033667;28;20205;-79
2023/04/13 07:09:06;;;;;;;1.70;0.70;;;;;;;8.23;75.50;99343.69;5033443;28;20202;-79
2023/04/13 07:11:32;;;;;;;1.33;0.70;;;;;;;8.29;75.01;99359.13;5034706;28;20277;-80
2023/04/13 07:13:59;;;;;;;3.27;0.70;;;;;;;8.29;74.09;99373.88;5034841;28;20214;-80
2023/04/13 07:16:25;;;;;;;2.00;0.80;;;;;;;8.33;73.54;99407.53;5034566;28;20203;-82
2023/04/13 07:18:52;;;;;;;4.03;0.77;;;;;;;8.30;74.35;99411.97;5033344;28;20211;-79
2023/04/13 07:21:18;;;;;;;1.93;0.63;;;;;;;8.42;73.51;99423.81;5033426;28;20231;-79
2023/04/13 07:23:44;;;;;;;1.60;0.60;;;;;;;8.35;74.57;99439.53;5034301;28;20203;-80
2023/04/13 07:26:14;;;;;;;1.63;0.83;;;;;;;8.33;74.58;99446.53;5033037;28;20637;-80
2023/04/13 07:28:41;;;;;;;1.23;0.60;;;;;;;8.31;73.93;99448.31;5019461;28;20211;-79
2023/04/13 07:31:07;;;;;;;0.60;0.50;;;;;;;8.31;74.87;99457.88;5017775;28;20269;-79
2023/04/13 07:33:34;;;;;;;1.43;0.53;;;;;;;8.32;73.64;99480.38;5017829;28;20253;-79
2023/04/13 07:36:00;;;;;;;1.37;0.60;;;;;;;8.38;73.78;99472.41;5017207;28;20250;-80
2023/04/13 07:38:26;;;;;;;2.27;0.60;;;;;;;8.27;72.41;99477.06;5016652;28;20205;-79
2023/04/13 07:40:53;;;;;;;0.87;0.57;;;;;;;8.41;74.96;99468.91;5016564;28;20226;-79
2023/04/13 07:43:24;;;;;;;1.13;0.50;;;;;;;8.44;73.87;99459.28;5016756;28;20621;-80
2023/04/13 07:45:50;;;;;;;1.57;0.60;;;;;;;8.57;75.61;99456.38;5017517;28;20210;-80
2023/04/13 07:48:16;;;;;;;2.60;0.60;;;;;;;8.61;74.25;99437.19;5016877;28;20264;-81
2023/04/13 07:50:43;;;;;;;1.93;0.83;;;;;;;8.60;73.13;99470.13;5017912;28;20247;-81
2023/04/13 07:53:10;;;;;;;2.33;0.60;;;;;;;8.68;72.78;99496.81;5017612;28;20713;-80
2023/04/13 07:55:37;;;;;;;0.87;0.53;;;;;;;8.73;72.81;99491.50;5017319;28;20216;-81
2023/04/13 07:58:03;;;;;;;1.17;0.50;;;;;;;8.78;72.01;99514.78;5016395;28;20217;-80
2023/04/13 08:00:31;;;;;;;1.53;0.60;;;;;;;8.77;73.19;99520.88;5031023;28;20211;-80
2023/04/13 08:02:57;;;;;;;1.37;0.63;;;;;;;8.83;74.53;99495.53;5037334;28;20261;-81
2023/04/13 08:05:23;;;;;;;1.53;0.60;;;;;;;8.89;71.70;99507.53;5037228;28;20292;-79
2023/04/13 08:07:50;;;;;;;1.50;0.60;;;;;;;8.94;70.91;99547.31;5037262;28;20209;-79
2023/04/13 08:10:16;;;;;;;2.60;0.60;;;;;;;8.92;70.34;99568.19;5037930;28;20212;-79
2023/04/13 08:12:43;;;;;;;1.47;0.80;;;;;;;9.05;71.90;99579.09;5037467;28;20228;-79
2023/04/13 08:15:10;;;;;;;1.27;0.40;;;;;;;9.08;72.21;99581.63;5037246;28;20209;-78
2023/04/13 08:17:38;;;;;;;1.23;0.77;;;;;;;9.01;71.61;99579.25;5036639;28;20269;-78
2023/04/13 08:20:08;;;;;;;0.97;0.60;;;;;;;8.92;69.63;99573.38;5036817;28;20267;-79
2023/04/13 08:22:35;;;;;;;1.37;0.53;;;;;;;8.90;69.27;99609.00;5036427;28;20348;-81
2023/04/13 08:25:04;;;;;;;0.50;0.50;;;;;;;8.99;69.64;99628.72;5036194;28;20260;-79
2023/04/13 08:27:30;;;;;;;2.30;0.70;;;;;;;9.04;69.96;99624.28;5025672;28;20208;-79
2023/04/13 08:30:00;;;;;;;1.93;0.60;;;;;;;9.20;70.20;99616.91;5021092;28;20212;-79
2023/04/13 08:32:27;;;;;;;1.57;0.70;;;;;;;9.31;69.44;99621.81;5016150;28;20348;-79
2023/04/13 08:34:54;;;;;;;1.37;0.50;;;;;;;9.41;70.38;99653.69;5016457;28;20209;-79
2023/04/13 08:37:21;;;;;;;1.30;0.60;;;;;;;9.32;68.46;99652.19;5015845;28;20218;-80
2023/04/13 08:39:47;;;;;;;1.00;0.57;;;;;;;9.46;69.52;99670.91;5016801;28;20632;-79
2023/04/13 08:42:14;;;;;;;3.10;0.73;;;;;;;9.44;69.59;99672.69;5016338;28;20314;-79
2023/04/13 08:44:41;;;;;;;0.70;0.60;;;;;;;9.48;69.83;99653.47;5016293;28;20263;-80
2023/04/13 08:47:09;;;;;;;2.07;0.70;;;;;;;9.41;69.27;99671.91;5016478;28;20593;-79
2023/04/13 08:49:38;;;;;;;0.83;0.60;;;;;;;9.56;70.71;99658.47;5016382;28;20213;-78
2023/04/13 08:52:07;;;;;;;1.97;0.60;;;;;;;9.59;69.83;99647.97;5017007;28;20291;-79
2023/04/13 08:54:34;;;;;;;0.60;0.47;;;;;;;9.57;68.75;99661.94;5016192;28;20208;-79
2023/04/13 08:57:01;;;;;;;2.13;0.70;;;;;;;9.66;68.32;99687.75;5015926;28;20213;-81
2023/04/13 08:59:29;;;;;;;1.30;0.73;;;;;;;9.67;67.73;99715.50;5022555;28;20215;-80
2023/04/13 09:01:57;;;;;;;1.10;0.73;;;;;;;9.73;70.54;99702.31;5024014;28;20215;-79
2023/04/13 09:04:31;;;;;;;1.50;0.50;;;;;;;9.98;71.17;99668.59;5015295;28;20206;-80
2023/04/13 09:06:58;;;;;;;3.37;0.87;;;;;;;10.10;69.33;99657.78;5016181;28;20191;-80
2023/04/13 09:09:27;;;;;;;2.40;0.70;;;;;;;10.17;70.09;99684.56;5015840;28;20299;-79
2023/04/13 09:11:53;;;;;;;8.60;0.83;;;;;;;10.13;69.42;99678.59;5016682;28;20236;-80
2023/04/13 09:14:20;;;;;;;1.07;0.53;;;;;;;10.20;67.48;99694.91;5016437;28;20229;-80
2023/04/13 09:16:47;;;;;;;0.80;0.67;;;;;;;10.21;68.53;99717.47;5015984;28;20260;-79
2023/04/13 09:19:13;;;;;;;1.73;0.43;;;;;;;10.25;68.18;99705.22;5014748;28;20563;-81
2023/04/13 09:21:41;;;;;;;1.40;0.60;;;;;;;10.23;66.30;99710.47;5014709;28;20237;-79
2023/04/13 09:24:08;;;;;;;1.87;0.77;;;;;;;10.25;70.24;99724.31;5015398;28;20213;-79
2023/04/13 09:26:44;;;;;;;0.80;0.60;;;;;;;10.38;69.91;99682.25;5015122;28;20202;-80
2023/04/13 09:29:15;;;;;;;0.70;0.70;;;;;;;10.38;69.37;99690.06;5014480;28;20235;-79
2023/04/13 09:31:42;;;;;;;1.80;0.83;;;;;;;10.52;70.30;99686.16;5015312;28;20630;-79
2023/04/13 09:34:09;;;;;;;0.70;0.70;;;;;;;10.65;68.28;99672.72;5015258;28;20233;-79
2023/04/13 09:36:36;;;;;;;1.13;0.70;;;;;;;10.56;66.98;99714.75;5014664;28;20242;-80
2023/04/13 09:39:04;;;;;;;0.77;0.70;;;;;;;10.64;66.79;99744.06;5015016;28;20207;-79
2023/04/13 09:41:32;;;;;;;1.17;0.80;;;;;;;10.58;68.30;99772.97;5014785;28;20220;-78
2023/04/13 09:44:00;;;;;;;1.23;0.80;;;;;;;10.58;67.32;99765.97;5014210;28;20209;-80
2023/04/13 09:46:26;;;;;;;0.90;0.90;;;;;;;10.58;66.47;99771.19;5015109;28;20640;-81
2023/04/13 09:49:01;;;;;;;0.80;0.80;;;;;;;10.62;65.42;99782.41;5015321;28;20202;-79
2023/04/13 09:51:35;;;;;;;1.00;0.90;;;;;;;10.43;65.22;99869.06;5013625;28;20229;-79
2023/04/13 09:54:02;;;;;;;1.20;1.10;;;;;;;10.47;66.10;99864.63;5014109;28;20225;-80
2023/04/13 09:56:29;;;;;;;0.97;0.80;;;;;;;10.34;64.11;99857.09;5013859;28;20218;-81
2023/04/13 09:58:56;;;;;;;1.67;0.80;;;;;;;10.36;65.28;99895.34;5013923;28;20292;-79
2023/04/13 10:01:24;;;;;;;1.77;1.00;;;;;;;10.53;66.90;99875.72;5013671;28;20223;-79
2023/04/13 10:03:50;;;;;;;0.93;0.80;;;;;;;10.52;65.55;99873.16;5014133;28;20262;-79
2023/04/13 10:06:17;;;;;;;1.73;1.00;;;;;;;10.60;65.49;99891.22;5013958;28;20212;-78
2023/04/13 10:08:45;;;;;;;1.03;0.73;;;;;;;10.17;62.40;99932.34;5013623;28;20218;-81
2023/04/13 10:11:13;;;;;;;1.33;0.67;;;;;;;10.17;64.39;99932.34;5014145;28;20238;-81
2023/04/13 10:13:49;;;;;;;0.53;0.53;;;;;;;10.29;64.77;99929.41;5013659;28;20241;-78
2023/04/13 10:16:43;;;;;;;1.17;0.90;;;;;;;10.37;64.16;99936.22;5014263;28;20644;-80
2023/04/13 10:19:12;;;;;;;0.93;0.87;;;;;;;10.48;64.66;99944.59;5014216;28;20213;-82
2023/04/13 10:21:42;;;;;;;1.17;0.90;;;;;;;10.56;62.77;99926.97;5014199;28;20650;-80
2023/04/13 10:24:11;;;;;;;1.30;1.13;;;;;;;10.68;63.77;99934.50;5014648;28;20213;-80
2023/04/13 10:26:39;;;;;;;1.33;0.83;;;;;;;10.68;63.11;99963.22;5017708;28;20211;-79
2023/04/13 10:29:07;;;;;;;0.80;0.80;;;;;;;10.84;63.06;99949.72;5018311;28;20293;-80
2023/04/13 10:31:41;;;;;;;0.80;0.80;;;;;;;10.96;62.55;99969.41;5014643;28;20623;-81
2023/04/13 10:34:09;;;;;;;1.10;1.00;;;;;;;10.96;61.83;99993.78;5013947;28;20571;-80
2023/04/13 10:36:40;;;;;;;0.90;0.90;;;;;;;10.96;60.67;100022.50;5014158;28;20238;-79
2023/04/13 10:39:07;;;;;;;1.23;0.93;;;;;;;11.05;62.79;100035.28;5014976;28;20207;-80
2023/04/13 10:41:34;;;;;;;0.87;0.87;;;;;;;11.03;60.11;100016.19;5014726;28;20278;-83
2023/04/13 10:44:01;;;;;;;1.43;1.10;;;;;;;11.12;59.90;100054.28;5022299;28;20283;-80
2023/04/13 10:46:28;;;;;;;0.63;0.60;;;;;;;10.95;57.28;100061.72;5022589;28;20283;-80
2023/04/13 10:48:57;;;;;;;0.90;0.77;;;;;;;10.98;59.40;100116.47;5032210;28;20208;-78
2023/04/13 10:51:24;;;;;;;0.93;0.93;;;;;;;10.99;60.62;100103.38;5032312;28;20235;-78
2023/04/13 10:53:51;;;;;;;0.97;0.87;;;;;;;11.09;60.96;100077.88;5033342;28;20227;-79
2023/04/13 10:56:17;;;;;;;1.37;0.80;;;;;;;11.38;62.13;100039.59;5029299;28;20305;-79
2023/04/13 10:58:51;;;;;;;0.80;0.70;;;;;;;11.54;58.26;100038.28;5012467;28;20666;-78
2023/04/13 11:01:18;;;;;;;2.03;0.80;;;;;;;11.53;56.71;100067.91;5013357;28;20610;-78
2023/04/13 11:03:45;;;;;;;0.90;0.73;;;;;;;11.72;57.11;100113.56;5017215;28;20253;-79
2023/04/13 11:06:15;;;;;;;1.53;0.80;;;;;;;11.84;56.65;100135.03;5016727;28;20292;-80
2023/04/13 11:08:42;;;;;;;1.37;0.70;;;;;;;12.03;56.32;100153.66;5013712;28;20205;-77
2023/04/13 11:11:11;;;;;;;2.20;0.90;;;;;;;12.24;56.29;100163.50;5016862;28;20229;-80
2023/04/13 11:13:45;;;;;;;1.17;0.70;;;;;;;12.31;56.03;100203.44;5017432;28;20233;-79
2023/04/13 11:16:12;;;;;;;0.63;0.50;;;;;;;12.12;54.63;100227.53;5017394;28;20225;-79
2023/04/13 11:18:39;;;;;;;0.73;0.73;;;;;;;12.22;54.35;100229.88;5016673;28;20218;-80
2023/04/13 11:21:15;;;;;;;0.93;0.70;;;;;;;12.46;55.49;100241.38;5017210;28;20359;-80
2023/04/13 11:23:41;;;;;;;0.77;0.77;;;;;;;12.63;55.61;100257.44;5017281;28;20210;-81
2023/04/13 11:26:08;;;;;;;0.97;0.80;;;;;;;12.59;53.93;100268.06;5016926;28;20764;-80
2023/04/13 11:28:39;;;;;;;0.93;0.93;;;;;;;12.62;53.75;100287.13;5016499;28;20216;-80
2023/04/13 11:31:06;;;;;;;1.47;0.80;;;;;;;12.74;54.04;100304.25;5017671;28;20623;-79
2023/04/13 11:33:34;;;;;;;1.17;0.70;;;;;;;12.86;56.13;100317.00;5066002;23;20244;-82
2023/04/13 11:36:01;;;;;;;1.17;0.60;;;;;;;13.59;55.00;100267.50;5058657;28;20258;-79
2023/04/13 11:38:31;;;;;;;2.00;0.73;;;;;;;15.33;52.97;100245.22;5058023;28;20213;-82
2023/04/13 11:41:01;;;;;;;1.03;0.80;;;;;;;16.79;45.95;100294.94;5057915;28;20228;-83